createdAt,value
2023-04-09T00:01:37.716Z,7.60
2023-04-09T00:04:09.237Z,7.72
2023-04-09T00:06:40.559Z,7.72
2023-04-09T00:09:11.806Z,7.70
2023-04-09T00:11:44.828Z,6.90
2023-04-09T00:14:16.856Z,6.80
2023-04-09T00:16:49.069Z,7.35
2023-04-09T00:19:20.835Z,7.00
2023-04-09T00:21:54.462Z,7.40
2023-04-09T00:24:25.957Z,7.60
2023-04-09T00:26:56.833Z,7.50
2023-04-09T00:29:28.344Z,7.15
2023-04-09T00:32:00.342Z,7.82
2023-04-09T00:34:31.356Z,6.90
2023-04-09T00:37:02.476Z,5.97
2023-04-09T00:39:33.853Z,7.18
2023-04-09T00:42:05.421Z,7.88
2023-04-09T00:44:39.674Z,6.45
2023-04-09T00:47:11.783Z,6.38
2023-04-09T00:49:46.855Z,6.15
2023-04-09T00:52:18.770Z,5.65
2023-04-09T00:54:51.615Z,6.20
2023-04-09T00:57:23.637Z,6.00
2023-04-09T00:59:54.829Z,6.80
2023-04-09T01:02:29.909Z,6.35
2023-04-09T01:05:02.124Z,6.70
2023-04-09T01:07:55.331Z,6.53
2023-04-09T01:10:54.362Z,6.85
2023-04-09T01:13:37.643Z,6.32
2023-04-09T01:16:09.348Z,6.68
2023-04-09T01:18:54.798Z,6.65
2023-04-09T01:21:30.823Z,6.45
2023-04-09T01:24:04.633Z,7.07
2023-04-09T01:27:00.327Z,6.68
2023-04-09T01:29:45.860Z,6.30
2023-04-09T01:32:19.103Z,6.82
2023-04-09T01:34:51.477Z,6.03
2023-04-09T01:37:23.459Z,7.07
2023-04-09T01:39:55.283Z,6.22
2023-04-09T01:42:27.813Z,6.65
2023-04-09T01:45:00.446Z,5.72
2023-04-09T01:47:32.431Z,7.25
2023-04-09T01:50:04.629Z,6.38
2023-04-09T01:52:36.613Z,6.22
2023-04-09T01:55:08.416Z,5.35
2023-04-09T01:57:39.418Z,5.85
2023-04-09T02:00:12.926Z,5.60
2023-04-09T02:02:55.666Z,4.65
2023-04-09T02:05:29.559Z,4.60
2023-04-09T02:08:04.354Z,4.93
2023-04-09T02:10:37.906Z,5.43
2023-04-09T02:13:11.980Z,4.75
2023-04-09T02:15:46.109Z,5.38
2023-04-09T02:18:31.385Z,5.07
2023-04-09T02:21:02.590Z,4.70
2023-04-09T02:23:34.943Z,5.32
2023-04-09T02:26:07.312Z,5.47
2023-04-09T02:28:38.538Z,5.28
2023-04-09T02:31:10.444Z,4.93
2023-04-09T02:33:41.904Z,3.97
2023-04-09T02:36:14.717Z,3.78
2023-04-09T02:38:45.806Z,4.38
2023-04-09T02:41:17.384Z,4.13
2023-04-09T02:43:49.046Z,3.92
2023-04-09T02:46:21.483Z,3.60
2023-04-09T02:48:55.812Z,4.00
2023-04-09T02:51:27.977Z,3.67
2023-04-09T02:53:59.646Z,5.40
2023-04-09T02:56:31.622Z,3.75
2023-04-09T02:59:03.855Z,4.05
2023-04-09T03:01:45.394Z,4.88
2023-04-09T03:04:16.656Z,3.90
2023-04-09T03:06:50.593Z,4.15
2023-04-09T03:09:21.343Z,5.35
2023-04-09T03:11:52.519Z,4.38
2023-04-09T03:14:23.644Z,3.88
2023-04-09T03:16:55.411Z,4.57
2023-04-09T03:19:26.537Z,3.60
2023-04-09T03:21:57.883Z,3.28
2023-04-09T03:24:32.867Z,3.90
2023-04-09T03:27:07.250Z,2.97
2023-04-09T03:29:39.785Z,3.28
2023-04-09T03:32:11.118Z,2.95
2023-04-09T03:34:42.658Z,3.15
2023-04-09T03:37:14.125Z,3.35
2023-04-09T03:39:46.525Z,2.90
2023-04-09T03:42:18.029Z,3.45
2023-04-09T03:44:55.559Z,3.63
2023-04-09T03:47:33.552Z,3.88
2023-04-09T03:50:04.715Z,3.97
2023-04-09T03:52:47.326Z,4.07
2023-04-09T03:55:17.966Z,3.17
2023-04-09T03:57:49.371Z,4.22
2023-04-09T04:00:23.407Z,3.60
2023-04-09T04:02:54.442Z,4.35
2023-04-09T04:05:45.247Z,4.43
2023-04-09T04:08:18.667Z,3.33
2023-04-09T04:10:50.153Z,3.22
2023-04-09T04:13:23.086Z,2.80
2023-04-09T04:15:59.502Z,2.90
2023-04-09T04:18:39.386Z,2.90
2023-04-09T04:21:17.927Z,2.65
2023-04-09T04:23:57.453Z,4.03
2023-04-09T04:26:31.728Z,3.58
2023-04-09T04:29:03.654Z,3.13
2023-04-09T04:31:54.907Z,2.47
2023-04-09T04:34:29.441Z,2.80
2023-04-09T04:37:05.599Z,3.00
2023-04-09T04:39:37.125Z,2.67
2023-04-09T04:42:13.196Z,2.78
2023-04-09T04:44:46.048Z,2.53
2023-04-09T04:47:36.571Z,2.90
2023-04-09T04:50:09.044Z,2.72
2023-04-09T04:52:53.685Z,2.70
2023-04-09T04:55:27.748Z,2.63
2023-04-09T04:57:58.952Z,2.63
2023-04-09T05:00:34.535Z,2.58
2023-04-09T05:03:07.060Z,2.40
2023-04-09T05:05:56.632Z,2.15
2023-04-09T05:08:31.346Z,2.30
2023-04-09T05:11:01.832Z,2.75
2023-04-09T05:13:39.526Z,2.22
2023-04-09T05:16:23.124Z,2.45
2023-04-09T05:19:03.471Z,2.28
2023-04-09T05:21:34.488Z,2.58
2023-04-09T05:24:06.336Z,2.22
2023-04-09T05:26:37.913Z,2.17
2023-04-09T05:29:08.610Z,2.70
2023-04-09T05:31:41.077Z,2.55
2023-04-09T05:34:19.007Z,5.38
2023-04-09T05:36:54.434Z,2.60
2023-04-09T05:39:26.964Z,2.00
2023-04-09T05:41:58.389Z,2.10
2023-04-09T05:44:55.042Z,2.35
2023-04-09T05:47:28.646Z,2.30
2023-04-09T05:50:12.472Z,1.98
2023-04-09T05:52:47.447Z,2.40
2023-04-09T05:55:19.790Z,3.00
2023-04-09T05:57:57.067Z,2.75
2023-04-09T06:00:28.110Z,2.65
2023-04-09T06:02:58.690Z,2.78
2023-04-09T06:05:31.736Z,2.13
2023-04-09T06:08:03.695Z,2.65
2023-04-09T06:10:35.729Z,2.90
2023-04-09T06:13:07.634Z,3.92
2023-04-09T06:15:40.166Z,2.80
2023-04-09T06:18:12.424Z,3.10
2023-04-09T06:20:43.071Z,2.95
2023-04-09T06:23:15.626Z,2.53
2023-04-09T06:25:46.835Z,3.15
2023-04-09T06:28:17.409Z,3.30
2023-04-09T06:30:57.119Z,2.30
2023-04-09T06:33:28.110Z,2.70
2023-04-09T06:35:59.374Z,2.83
2023-04-09T06:38:30.284Z,2.90
2023-04-09T06:41:00.953Z,2.75
2023-04-09T06:43:31.659Z,2.80
2023-04-09T06:46:03.673Z,2.47
2023-04-09T06:48:36.962Z,2.72
2023-04-09T06:51:11.040Z,2.47
2023-04-09T06:53:41.431Z,2.97
2023-04-09T06:56:14.672Z,3.15
2023-04-09T06:58:45.735Z,2.80
2023-04-09T07:01:18.353Z,2.88
2023-04-09T07:03:49.473Z,2.78
2023-04-09T07:06:21.068Z,2.63
2023-04-09T07:08:52.318Z,3.00
2023-04-09T07:11:22.989Z,2.58
2023-04-09T07:13:55.368Z,2.80
2023-04-09T07:16:26.505Z,3.00
2023-04-09T07:18:58.400Z,2.85
2023-04-09T07:21:29.268Z,3.45
2023-04-09T07:24:00.726Z,3.33
2023-04-09T07:26:31.978Z,3.53
2023-04-09T07:29:04.658Z,3.50
2023-04-09T07:31:36.171Z,3.25
2023-04-09T07:34:07.182Z,3.42
2023-04-09T07:36:37.576Z,2.92
2023-04-09T07:39:08.174Z,2.70
2023-04-09T07:41:38.545Z,2.90
2023-04-09T07:44:10.213Z,2.80
2023-04-09T07:46:41.335Z,2.78
2023-04-09T07:49:12.255Z,3.92
2023-04-09T07:51:43.677Z,3.10
2023-04-09T07:54:14.290Z,3.40
2023-04-09T07:56:44.995Z,2.88
2023-04-09T07:59:19.268Z,2.80
2023-04-09T08:01:50.355Z,2.75
2023-04-09T08:04:22.391Z,2.35
2023-04-09T08:06:57.837Z,2.90
2023-04-09T08:09:29.798Z,2.70
2023-04-09T08:12:03.616Z,2.72
2023-04-09T08:14:34.936Z,2.83
2023-04-09T08:17:07.271Z,2.28
2023-04-09T08:19:39.878Z,2.80
2023-04-09T08:22:14.532Z,2.58
2023-04-09T08:24:46.519Z,2.50
2023-04-09T08:27:17.300Z,3.00
2023-04-09T08:29:48.837Z,3.10
2023-04-09T08:32:23.151Z,2.30
2023-04-09T08:34:56.248Z,2.65
2023-04-09T08:37:27.892Z,2.20
2023-04-09T08:40:00.690Z,2.38
2023-04-09T08:42:34.247Z,2.80
2023-04-09T08:45:09.685Z,2.40
2023-04-09T08:47:43.637Z,3.10
2023-04-09T08:50:16.127Z,2.65
2023-04-09T08:52:51.492Z,2.65
2023-04-09T08:55:22.750Z,3.30
2023-04-09T08:57:53.688Z,3.00
2023-04-09T09:00:25.480Z,3.22
2023-04-09T09:03:11.995Z,3.03
2023-04-09T09:05:44.335Z,3.63
2023-04-09T09:08:28.265Z,3.47
2023-04-09T09:10:59.861Z,3.10
2023-04-09T09:13:31.073Z,3.05
2023-04-09T09:16:17.970Z,2.90
2023-04-09T09:18:50.839Z,3.00
2023-04-09T09:21:23.609Z,3.60
2023-04-09T09:23:54.879Z,3.17
2023-04-09T09:26:31.095Z,3.47
2023-04-09T09:29:06.838Z,3.10
2023-04-09T09:31:50.551Z,3.00
2023-04-09T09:34:25.423Z,3.78
2023-04-09T09:36:56.824Z,3.10
2023-04-09T09:39:47.860Z,3.25
2023-04-09T09:42:19.595Z,3.55
2023-04-09T09:44:52.872Z,3.20
2023-04-09T09:47:26.373Z,3.92
2023-04-09T09:49:57.912Z,4.03
2023-04-09T09:53:04.312Z,3.83
2023-04-09T09:55:40.331Z,4.00
2023-04-09T09:58:18.908Z,4.32
2023-04-09T10:00:52.625Z,3.70
2023-04-09T10:03:29.789Z,4.10
2023-04-09T10:06:03.727Z,4.28
2023-04-09T10:08:37.292Z,6.03
2023-04-09T10:11:08.817Z,4.80
2023-04-09T10:13:42.974Z,5.20
2023-04-09T10:16:15.459Z,4.78
2023-04-09T10:18:47.741Z,4.43
2023-04-09T10:21:38.445Z,4.50
2023-04-09T10:24:11.813Z,5.05
2023-04-09T10:26:45.447Z,5.35
2023-04-09T10:29:19.427Z,5.32
2023-04-09T10:32:23.643Z,5.40
2023-04-09T10:34:59.687Z,5.30
2023-04-09T10:37:31.297Z,4.80
2023-04-09T10:40:05.881Z,6.00
2023-04-09T10:42:43.161Z,6.22
2023-04-09T10:45:17.840Z,6.30
2023-04-09T10:47:54.971Z,6.63
2023-04-09T10:50:31.876Z,6.82
2023-04-09T10:53:06.357Z,6.68
2023-04-09T10:55:40.489Z,7.28
2023-04-09T10:58:19.943Z,8.10
2023-04-09T11:00:53.593Z,8.18
2023-04-09T11:03:31.489Z,7.05
2023-04-09T11:06:10.259Z,7.55
2023-04-09T11:08:43.653Z,7.55
2023-04-09T11:11:17.147Z,8.30
2023-04-09T11:13:47.872Z,7.90
2023-04-09T11:16:22.923Z,9.48
2023-04-09T11:18:59.723Z,7.93
2023-04-09T11:21:31.432Z,7.40
2023-04-09T11:24:02.862Z,6.55
2023-04-09T11:26:40.885Z,6.93
2023-04-09T11:29:12.088Z,7.55
2023-04-09T11:31:47.132Z,8.55
2023-04-09T11:34:19.011Z,7.05
2023-04-09T11:36:51.596Z,8.90
2023-04-09T11:39:22.868Z,6.72
2023-04-09T11:41:54.372Z,6.95
2023-04-09T11:44:25.793Z,6.13
2023-04-09T11:46:58.501Z,6.95
2023-04-09T11:49:30.004Z,6.75
2023-04-09T11:52:02.838Z,6.57
2023-04-09T11:54:36.768Z,7.25
2023-04-09T11:57:08.774Z,6.72
2023-04-09T11:59:41.031Z,6.47
2023-04-09T12:02:12.488Z,9.23
2023-04-09T12:04:53.941Z,9.03
2023-04-09T12:07:26.297Z,7.50
2023-04-09T12:09:58.840Z,7.40
2023-04-09T12:12:30.197Z,7.13
2023-04-09T12:15:00.652Z,6.75
2023-04-09T12:17:31.152Z,7.35
2023-04-09T12:20:11.854Z,6.78
2023-04-09T12:22:43.040Z,6.68
2023-04-09T12:25:13.888Z,6.18
2023-04-09T12:27:44.798Z,6.55
2023-04-09T12:30:15.119Z,5.88
2023-04-09T12:32:47.312Z,6.20
2023-04-09T12:35:18.028Z,6.50
2023-04-09T12:37:48.292Z,5.90
2023-04-09T12:40:20.462Z,6.53
2023-04-09T12:42:51.160Z,5.63
2023-04-09T12:45:22.840Z,6.20
2023-04-09T12:47:54.633Z,6.40
2023-04-09T12:50:25.312Z,5.75
2023-04-09T12:52:56.418Z,6.45
2023-04-09T12:55:27.795Z,6.43
2023-04-09T12:57:58.929Z,6.25
2023-04-09T13:00:31.888Z,6.22
2023-04-09T13:03:03.227Z,6.38
2023-04-09T13:05:36.807Z,7.13
2023-04-09T13:08:07.700Z,7.20
2023-04-09T13:10:38.162Z,7.68
2023-04-09T13:13:12.922Z,8.55
2023-04-09T13:15:47.412Z,8.35
2023-04-09T13:18:18.073Z,8.10
2023-04-09T13:20:48.937Z,7.70
2023-04-09T13:23:19.895Z,8.13
2023-04-09T13:25:51.353Z,9.02
2023-04-09T13:28:22.321Z,8.23
2023-04-09T13:31:01.945Z,7.25
2023-04-09T13:33:32.458Z,8.20
2023-04-09T13:36:03.735Z,7.70
2023-04-09T13:38:34.384Z,8.88
2023-04-09T13:41:05.369Z,8.10
2023-04-09T13:43:35.882Z,8.48
2023-04-09T13:46:06.827Z,7.90
2023-04-09T13:48:38.474Z,7.85
2023-04-09T13:51:09.820Z,8.00
2023-04-09T13:53:41.058Z,8.25
2023-04-09T13:56:11.688Z,8.93
2023-04-09T13:58:44.647Z,8.77
2023-04-09T14:01:16.751Z,8.60
2023-04-09T14:03:47.644Z,8.68
2023-04-09T14:06:18.089Z,8.30
2023-04-09T14:08:49.105Z,8.77
2023-04-09T14:11:19.969Z,8.27
2023-04-09T14:13:50.513Z,8.77
2023-04-09T14:16:23.900Z,8.40
2023-04-09T14:19:01.480Z,8.60
2023-04-09T14:21:32.894Z,8.10
2023-04-09T14:24:03.412Z,9.25
2023-04-09T14:26:33.877Z,8.90
2023-04-09T14:29:04.780Z,9.50
2023-04-09T14:31:35.547Z,9.80
2023-04-09T14:34:16.885Z,8.93
2023-04-09T14:36:48.227Z,9.77
2023-04-09T14:39:22.090Z,9.60
2023-04-09T14:41:53.322Z,9.82
2023-04-09T14:44:23.864Z,9.10
2023-04-09T14:46:58.763Z,8.80
2023-04-09T14:49:29.423Z,8.55
2023-04-09T14:52:03.520Z,9.13
2023-04-09T14:54:35.267Z,11.18
2023-04-09T14:57:05.849Z,9.68
2023-04-09T14:59:38.023Z,9.50
2023-04-09T15:02:09.025Z,9.73
2023-04-09T15:04:40.608Z,8.35
2023-04-09T15:07:11.510Z,8.50
2023-04-09T15:09:42.502Z,8.63
2023-04-09T15:12:13.098Z,8.57
2023-04-09T15:14:44.301Z,8.68
2023-04-09T15:17:14.953Z,8.02
2023-04-09T15:19:45.963Z,8.75
2023-04-09T15:22:18.105Z,8.55
2023-04-09T15:24:48.999Z,9.02
2023-04-09T15:27:19.831Z,8.60
2023-04-09T15:29:50.499Z,8.32
2023-04-09T15:32:24.448Z,8.50
2023-04-09T15:34:54.899Z,8.73
2023-04-09T15:37:25.628Z,7.63
2023-04-09T15:39:57.749Z,8.15
2023-04-09T15:42:29.279Z,7.68
2023-04-09T15:45:00.055Z,7.80
2023-04-09T15:47:32.687Z,8.13
2023-04-09T15:50:05.014Z,7.80
2023-04-09T15:52:36.635Z,6.90
2023-04-09T15:55:16.186Z,7.70
2023-04-09T15:57:47.749Z,7.07
2023-04-09T16:00:18.224Z,7.28
2023-04-09T16:02:48.665Z,7.45
2023-04-09T16:05:19.739Z,7.07
2023-04-09T16:07:54.526Z,7.07
2023-04-09T16:10:26.087Z,7.25
2023-04-09T16:12:57.788Z,7.85
2023-04-09T16:15:29.448Z,7.63
2023-04-09T16:18:00.713Z,7.65
2023-04-09T16:20:32.532Z,7.53
2023-04-09T16:23:05.268Z,7.47
2023-04-09T16:25:36.805Z,7.47
2023-04-09T16:28:09.873Z,8.43
2023-04-09T16:30:42.027Z,7.45
2023-04-09T16:33:15.185Z,7.20
2023-04-09T16:35:46.844Z,7.45
2023-04-09T16:38:18.625Z,7.25
2023-04-09T16:40:50.316Z,6.85
2023-04-09T16:43:21.446Z,6.25
2023-04-09T16:45:53.430Z,6.13
2023-04-09T16:48:25.253Z,6.50
2023-04-09T16:50:57.349Z,7.43
2023-04-09T16:53:32.708Z,7.10
2023-04-09T16:56:05.226Z,7.63
2023-04-09T16:58:36.327Z,7.28
2023-04-09T17:01:10.760Z,7.40
2023-04-09T17:03:44.938Z,6.63
2023-04-09T17:06:16.592Z,7.35
2023-04-09T17:08:56.707Z,6.82
2023-04-09T17:11:28.422Z,7.80
2023-04-09T17:13:59.791Z,7.22
2023-04-09T17:16:30.816Z,6.47
2023-04-09T17:19:01.970Z,7.10
2023-04-09T17:21:34.047Z,6.43
2023-04-09T17:24:06.851Z,6.70
2023-04-09T17:26:38.258Z,6.65
2023-04-09T17:29:09.826Z,7.03
2023-04-09T17:31:41.312Z,7.30
2023-04-09T17:34:12.816Z,8.70
2023-04-09T17:36:43.818Z,10.07
2023-04-09T17:39:15.046Z,11.38
2023-04-09T17:41:46.318Z,11.05
2023-04-09T17:44:18.524Z,11.57
2023-04-09T17:46:50.822Z,12.38
2023-04-09T17:49:24.280Z,11.80
2023-04-09T17:51:58.551Z,11.95
2023-04-09T17:54:36.830Z,11.05
2023-04-09T17:57:09.251Z,11.13
2023-04-09T17:59:40.567Z,11.00
2023-04-09T18:02:15.208Z,10.38
2023-04-09T18:04:47.248Z,10.70
2023-04-09T18:07:21.338Z,10.55
2023-04-09T18:09:52.605Z,10.32
2023-04-09T18:12:24.774Z,10.30
2023-04-09T18:14:56.878Z,9.82
2023-04-09T18:17:28.842Z,10.20
2023-04-09T18:19:59.746Z,10.00
2023-04-09T18:22:30.582Z,9.68
2023-04-09T18:25:02.294Z,10.13
2023-04-09T18:27:33.828Z,9.77
2023-04-09T18:30:05.447Z,10.55
2023-04-09T18:32:36.673Z,10.23
2023-04-09T18:35:09.404Z,10.73
2023-04-09T18:37:41.354Z,10.13
2023-04-09T18:40:13.623Z,11.27
2023-04-09T18:42:44.823Z,20.13
2023-04-09T18:45:16.051Z,13.32
2023-04-09T18:47:47.706Z,14.18
2023-04-09T18:50:19.651Z,14.27
2023-04-09T18:52:50.745Z,11.60
2023-04-09T18:55:21.903Z,12.40
2023-04-09T18:57:53.712Z,11.45
2023-04-09T19:00:25.159Z,11.23
2023-04-09T19:02:57.090Z,11.13
2023-04-09T19:05:28.920Z,11.43
2023-04-09T19:08:05.422Z,11.30
2023-04-09T19:10:37.310Z,11.45
2023-04-09T19:13:08.872Z,10.13
2023-04-09T19:15:40.527Z,10.02
2023-04-09T19:18:11.409Z,10.10
2023-04-09T19:20:42.798Z,9.77
2023-04-09T19:23:13.950Z,10.80
2023-04-09T19:25:46.078Z,10.00
2023-04-09T19:28:19.725Z,10.40
2023-04-09T19:30:54.589Z,10.23
2023-04-09T19:33:28.221Z,10.48
2023-04-09T19:35:59.481Z,10.13
2023-04-09T19:38:31.043Z,10.38
2023-04-09T19:41:02.478Z,9.88
2023-04-09T19:43:33.681Z,9.60
2023-04-09T19:46:09.710Z,9.43
2023-04-09T19:48:41.907Z,9.38
2023-04-09T19:51:21.214Z,9.65
2023-04-09T19:53:52.240Z,9.35
2023-04-09T19:56:23.928Z,9.77
2023-04-09T19:58:55.836Z,9.23
2023-04-09T20:01:27.982Z,9.82
2023-04-09T20:03:59.589Z,10.15
2023-04-09T20:06:32.531Z,9.23
2023-04-09T20:09:03.877Z,9.93
2023-04-09T20:11:35.531Z,10.23
2023-04-09T20:14:06.996Z,10.90
2023-04-09T20:16:38.278Z,11.90
2023-04-09T20:19:08.906Z,12.18
2023-04-09T20:21:39.458Z,12.52
2023-04-09T20:24:09.799Z,12.57
2023-04-09T20:26:40.980Z,12.98
2023-04-09T20:29:13.157Z,14.38
2023-04-09T20:31:44.741Z,15.57
2023-04-09T20:34:16.011Z,15.07
2023-04-09T20:36:49.008Z,16.20
2023-04-09T20:39:20.799Z,16.63
2023-04-09T20:41:52.547Z,17.52
2023-04-09T20:44:23.690Z,18.40
2023-04-09T20:46:55.467Z,18.27
2023-04-09T20:49:26.494Z,19.52
2023-04-09T20:51:57.933Z,18.55
2023-04-09T20:54:30.282Z,20.17
2023-04-09T20:57:05.920Z,18.80
2023-04-09T20:59:36.598Z,18.83
2023-04-09T21:02:07.709Z,17.85
2023-04-09T21:04:39.796Z,18.13
2023-04-09T21:07:11.032Z,18.65
2023-04-09T21:09:42.458Z,18.65
2023-04-09T21:12:14.444Z,17.98
2023-04-09T21:14:48.998Z,19.35
2023-04-09T21:17:20.106Z,18.67
2023-04-09T21:19:52.759Z,18.85
2023-04-09T21:22:23.733Z,20.73
2023-04-09T21:24:57.267Z,19.50
2023-04-09T21:27:28.000Z,20.70
2023-04-09T21:30:00.013Z,20.00
2023-04-09T21:32:32.596Z,21.05
2023-04-09T21:35:03.996Z,20.95
2023-04-09T21:37:35.531Z,21.88
2023-04-09T21:40:07.562Z,22.20
2023-04-09T21:42:39.117Z,23.73
2023-04-09T21:45:10.671Z,23.55
2023-04-09T21:47:42.104Z,23.27
2023-04-09T21:50:13.865Z,25.08
2023-04-09T21:52:48.031Z,24.30
2023-04-09T21:55:19.061Z,23.45
2023-04-09T21:57:50.715Z,24.23
2023-04-09T22:00:22.326Z,24.58
2023-04-09T22:02:53.719Z,25.60
2023-04-09T22:05:25.064Z,25.05
2023-04-09T22:07:56.814Z,25.33
2023-04-09T22:10:30.739Z,24.30
2023-04-09T22:13:02.945Z,23.67
2023-04-09T22:15:35.054Z,21.70
2023-04-09T22:18:06.086Z,24.00
2023-04-09T22:20:38.353Z,24.58
2023-04-09T22:23:11.041Z,24.48
2023-04-09T22:25:45.615Z,23.92
2023-04-09T22:28:17.243Z,24.67
2023-04-09T22:30:48.371Z,25.02
2023-04-09T22:33:19.371Z,22.98
2023-04-09T22:35:50.642Z,24.15
2023-04-09T22:38:23.976Z,22.10
2023-04-09T22:40:56.866Z,22.95
2023-04-09T22:43:28.324Z,22.13
2023-04-09T22:45:59.182Z,22.00
2023-04-09T22:48:31.160Z,21.27
2023-04-09T22:51:03.139Z,23.60
2023-04-09T22:53:34.216Z,24.00
2023-04-09T22:56:04.933Z,23.23
2023-04-09T22:58:37.151Z,23.38
2023-04-09T23:01:08.598Z,25.27
2023-04-09T23:03:39.349Z,25.02
2023-04-09T23:06:10.411Z,22.30
2023-04-09T23:08:40.862Z,21.92
2023-04-09T23:11:11.826Z,23.63
2023-04-09T23:13:43.260Z,23.75
2023-04-09T23:16:14.921Z,28.75
2023-04-09T23:18:54.450Z,21.58
2023-04-09T23:21:25.200Z,20.60
2023-04-09T23:23:55.953Z,20.85
2023-04-09T23:26:27.187Z,20.35
2023-04-09T23:28:58.218Z,22.85
2023-04-09T23:31:29.352Z,26.33
2023-04-09T23:34:00.128Z,26.20
2023-04-09T23:36:30.667Z,24.08
2023-04-09T23:39:01.063Z,22.67
2023-04-09T23:41:32.129Z,21.95
2023-04-09T23:44:02.993Z,21.75
2023-04-09T23:46:33.462Z,21.25
2023-04-09T23:49:05.867Z,19.05
2023-04-09T23:51:36.290Z,18.55
2023-04-09T23:54:08.103Z,17.80
2023-04-09T23:56:38.653Z,17.02
2023-04-09T23:59:17.571Z,17.98
